createdAt,value
2018-07-19T00:02:20.273Z,5.87
2018-07-19T00:04:48.471Z,6.20
2018-07-19T00:07:16.657Z,6.30
2018-07-19T00:09:45.357Z,6.20
2018-07-19T00:12:13.545Z,6.00
2018-07-19T00:14:41.713Z,6.13
2018-07-19T00:17:09.949Z,5.57
2018-07-19T00:19:38.129Z,6.30
2018-07-19T00:22:06.401Z,5.40
2018-07-19T00:24:34.573Z,6.20
2018-07-19T00:27:02.749Z,6.27
2018-07-19T00:29:30.923Z,6.67
2018-07-19T00:31:59.205Z,6.23
2018-07-19T00:34:27.377Z,5.97
2018-07-19T00:36:55.556Z,6.40
2018-07-19T00:39:23.721Z,5.97
2018-07-19T00:41:51.902Z,6.10
2018-07-19T00:44:20.106Z,5.20
2018-07-19T00:46:48.274Z,5.47
2018-07-19T00:49:16.449Z,5.47
2018-07-19T00:51:44.618Z,6.00
2018-07-19T00:54:12.871Z,6.47
2018-07-19T00:56:41.050Z,6.90
2018-07-19T00:59:09.446Z,6.30
2018-07-19T01:01:37.614Z,5.90
2018-07-19T01:04:06.018Z,6.30
2018-07-19T01:06:34.203Z,6.10
2018-07-19T01:09:02.398Z,5.93
2018-07-19T01:11:30.561Z,5.53
2018-07-19T01:13:58.733Z,5.90
2018-07-19T01:16:26.945Z,5.80
2018-07-19T01:18:55.121Z,6.47
2018-07-19T01:21:23.309Z,6.30
2018-07-19T01:23:51.475Z,5.97
2018-07-19T01:26:19.657Z,6.23
2018-07-19T01:28:47.981Z,7.27
2018-07-19T01:31:16.563Z,6.60
2018-07-19T01:33:45.143Z,6.07
2018-07-19T01:36:14.298Z,6.50
2018-07-19T01:38:42.556Z,6.47
2018-07-19T01:41:22.122Z,6.47
2018-07-19T01:43:50.378Z,6.37
2018-07-19T01:46:18.650Z,7.07
2018-07-19T01:48:46.838Z,6.37
2018-07-19T01:51:15.018Z,6.70
2018-07-19T01:53:43.181Z,6.53
2018-07-19T01:56:11.345Z,7.40
2018-07-19T01:58:39.521Z,6.43
2018-07-19T02:01:07.681Z,6.67
2018-07-19T02:03:35.853Z,7.40
2018-07-19T02:06:04.018Z,7.10
2018-07-19T02:08:32.277Z,7.60
2018-07-19T02:11:00.442Z,7.03
2018-07-19T02:13:28.605Z,7.00
2018-07-19T02:15:56.766Z,7.50
2018-07-19T02:18:24.945Z,7.10
2018-07-19T02:20:53.105Z,6.90
2018-07-19T02:23:21.397Z,7.30
2018-07-19T02:25:49.653Z,7.20
2018-07-19T02:28:17.922Z,6.57
2018-07-19T02:30:46.154Z,7.47
2018-07-19T02:33:14.428Z,7.23
2018-07-19T02:35:42.585Z,6.70
2018-07-19T02:38:10.743Z,7.30
2018-07-19T02:40:38.919Z,7.60
2018-07-19T02:43:07.181Z,7.47
2018-07-19T02:45:35.382Z,6.67
2018-07-19T02:48:03.642Z,7.37
2018-07-19T02:50:31.886Z,8.20
2018-07-19T02:53:00.061Z,8.00
2018-07-19T02:55:28.246Z,8.00
2018-07-19T02:57:56.424Z,7.90
2018-07-19T03:00:24.584Z,7.33
2018-07-19T03:02:52.850Z,7.10
2018-07-19T03:05:21.050Z,8.00
2018-07-19T03:07:49.238Z,8.70
2018-07-19T03:10:17.398Z,8.87
2018-07-19T03:12:45.635Z,14.33
2018-07-19T03:15:13.794Z,8.47
2018-07-19T03:17:41.964Z,8.60
2018-07-19T03:20:10.198Z,8.93
2018-07-19T03:22:38.891Z,8.87
2018-07-19T03:25:07.165Z,16.53
2018-07-19T03:27:35.432Z,14.17
2018-07-19T03:30:03.622Z,10.27
2018-07-19T03:32:31.881Z,8.50
2018-07-19T03:35:00.042Z,16.43
2018-07-19T03:37:28.216Z,12.97
2018-07-19T03:39:56.509Z,7.60
2018-07-19T03:42:24.673Z,8.60
2018-07-19T03:44:52.833Z,7.80
2018-07-19T03:47:21.029Z,7.10
2018-07-19T03:49:49.192Z,8.07
2018-07-19T03:52:17.359Z,8.03
2018-07-19T03:54:45.670Z,7.47
2018-07-19T03:57:13.953Z,7.90
2018-07-19T03:59:42.162Z,7.60
2018-07-19T04:02:10.396Z,7.60
2018-07-19T04:04:38.678Z,7.93
2018-07-19T04:07:06.934Z,7.83
2018-07-19T04:09:35.118Z,9.37
2018-07-19T04:12:03.286Z,9.47
2018-07-19T04:14:31.440Z,8.83
2018-07-19T04:16:59.689Z,8.40
2018-07-19T04:19:27.897Z,8.07
2018-07-19T04:21:56.185Z,8.53
2018-07-19T04:24:24.457Z,7.73
2018-07-19T04:26:52.645Z,7.30
2018-07-19T04:29:22.208Z,8.00
2018-07-19T04:31:50.384Z,8.40
2018-07-19T04:34:18.581Z,8.03
2018-07-19T04:36:46.751Z,7.90
2018-07-19T04:39:14.943Z,7.60
2018-07-19T04:41:43.092Z,7.47
2018-07-19T04:44:11.294Z,7.80
2018-07-19T04:46:39.678Z,7.97
2018-07-19T04:49:07.850Z,7.17
2018-07-19T04:51:36.390Z,7.53
2018-07-19T04:54:04.589Z,7.87
2018-07-19T04:56:32.750Z,7.20
2018-07-19T04:59:00.918Z,6.70
2018-07-19T05:01:29.098Z,7.53
2018-07-19T05:03:57.952Z,7.10
2018-07-19T05:06:26.114Z,7.90
2018-07-19T05:08:54.371Z,7.40
2018-07-19T05:11:22.537Z,7.73
2018-07-19T05:13:50.694Z,7.50
2018-07-19T05:16:19.106Z,7.83
2018-07-19T05:18:47.281Z,7.40
2018-07-19T05:21:15.439Z,6.83
2018-07-19T05:23:43.613Z,8.07
2018-07-19T05:26:11.769Z,7.20
2018-07-19T05:28:39.945Z,7.23
2018-07-19T05:31:08.611Z,7.87
2018-07-19T05:33:36.805Z,7.50
2018-07-19T05:36:05.034Z,7.87
2018-07-19T05:38:33.207Z,7.00
2018-07-19T05:41:01.425Z,7.07
2018-07-19T05:43:29.590Z,6.87
2018-07-19T05:45:57.815Z,7.40
2018-07-19T05:48:25.993Z,6.90
2018-07-19T05:50:54.157Z,6.70
2018-07-19T05:53:22.321Z,6.50
2018-07-19T05:55:50.565Z,5.37
2018-07-19T05:58:18.985Z,5.70
2018-07-19T06:00:47.093Z,6.00
2018-07-19T06:03:15.362Z,5.90
2018-07-19T06:05:43.719Z,5.83
2018-07-19T06:08:12.177Z,6.53
2018-07-19T06:10:40.663Z,6.00
2018-07-19T06:13:08.874Z,6.00
2018-07-19T06:15:37.052Z,5.17
2018-07-19T06:18:05.226Z,5.70
2018-07-19T06:20:33.435Z,5.53
2018-07-19T06:23:01.618Z,5.07
2018-07-19T06:25:29.886Z,5.10
2018-07-19T06:27:58.166Z,5.80
2018-07-19T06:30:26.368Z,5.63
2018-07-19T06:32:54.882Z,5.17
2018-07-19T06:35:23.152Z,4.57
2018-07-19T06:37:51.898Z,4.67
2018-07-19T06:40:20.070Z,3.83
2018-07-19T06:42:48.253Z,4.03
2018-07-19T06:45:16.925Z,4.40
2018-07-19T06:47:45.090Z,4.07
2018-07-19T06:50:13.280Z,4.00
2018-07-19T06:52:41.602Z,4.00
2018-07-19T06:55:10.049Z,3.40
2018-07-19T06:57:38.331Z,4.17
2018-07-19T07:00:07.621Z,4.00
2018-07-19T07:02:35.864Z,4.00
2018-07-19T07:05:04.520Z,3.87
2018-07-19T07:07:32.747Z,3.90
2018-07-19T07:10:00.903Z,3.40
2018-07-19T07:12:29.050Z,3.73
2018-07-19T07:14:57.328Z,3.53
2018-07-19T07:17:25.836Z,4.57
2018-07-19T07:19:54.130Z,4.57
2018-07-19T07:22:22.342Z,3.63
2018-07-19T07:24:50.507Z,3.97
2018-07-19T07:27:18.967Z,3.77
2018-07-19T07:29:47.225Z,4.30
2018-07-19T07:32:15.497Z,3.47
2018-07-19T07:34:43.661Z,3.43
2018-07-19T07:37:11.856Z,3.50
2018-07-19T07:39:40.119Z,3.70
2018-07-19T07:42:08.401Z,2.90
2018-07-19T07:44:36.575Z,3.50
2018-07-19T07:47:04.814Z,3.40
2018-07-19T07:49:32.969Z,3.60
2018-07-19T07:52:01.139Z,3.77
2018-07-19T07:54:29.368Z,3.00
2018-07-19T07:56:57.583Z,3.90
2018-07-19T07:59:25.852Z,3.70
2018-07-19T08:01:53.963Z,3.63
2018-07-19T08:04:22.154Z,3.20
2018-07-19T08:06:50.778Z,3.90
2018-07-19T08:09:18.949Z,3.30
2018-07-19T08:11:47.206Z,3.50
2018-07-19T08:14:15.377Z,3.40
2018-07-19T08:16:43.564Z,2.90
2018-07-19T08:19:11.819Z,3.03
2018-07-19T08:21:40.032Z,3.17
2018-07-19T08:24:08.299Z,3.23
2018-07-19T08:26:36.625Z,3.83
2018-07-19T08:29:04.848Z,3.93
2018-07-19T08:31:33.005Z,3.63
2018-07-19T08:34:01.191Z,2.70
2018-07-19T08:36:29.353Z,3.67
2018-07-19T08:38:57.512Z,3.30
2018-07-19T08:41:25.690Z,3.27
2018-07-19T08:43:53.882Z,3.27
2018-07-19T08:46:22.046Z,3.63
2018-07-19T08:48:50.215Z,3.20
2018-07-19T08:51:18.415Z,2.53
2018-07-19T08:53:46.579Z,3.20
2018-07-19T08:56:14.739Z,3.50
2018-07-19T08:58:42.960Z,2.97
2018-07-19T09:01:11.131Z,2.90
2018-07-19T09:03:39.318Z,3.20
2018-07-19T09:06:07.491Z,3.17
2018-07-19T09:08:35.744Z,3.17
2018-07-19T09:11:03.901Z,3.17
2018-07-19T09:13:32.103Z,3.13
2018-07-19T09:16:00.339Z,3.23
2018-07-19T09:18:28.519Z,2.73
2018-07-19T09:20:56.713Z,2.93
2018-07-19T09:23:24.888Z,3.83
2018-07-19T09:25:53.052Z,3.03
2018-07-19T09:28:21.302Z,2.80
2018-07-19T09:30:49.516Z,2.70
2018-07-19T09:33:17.690Z,2.63
2018-07-19T09:35:45.878Z,3.10
2018-07-19T09:38:14.109Z,2.77
2018-07-19T09:40:42.282Z,2.90
2018-07-19T09:43:10.462Z,3.60
2018-07-19T09:45:38.684Z,3.03
2018-07-19T09:48:06.844Z,3.20
2018-07-19T09:50:35.026Z,3.60
2018-07-19T09:53:03.270Z,3.30
2018-07-19T09:55:31.944Z,3.30
2018-07-19T09:58:00.122Z,4.50
2018-07-19T10:00:33.897Z,2.67
2018-07-19T10:03:02.132Z,3.10
2018-07-19T10:05:30.297Z,3.87
2018-07-19T10:07:58.545Z,3.80
2018-07-19T10:10:26.748Z,2.80
2018-07-19T10:12:54.904Z,2.97
2018-07-19T10:15:23.097Z,3.40
2018-07-19T10:17:51.883Z,2.80
2018-07-19T10:20:20.057Z,3.20
2018-07-19T10:22:48.230Z,2.80
2018-07-19T10:25:17.048Z,3.70
2018-07-19T10:27:45.252Z,3.10
2018-07-19T10:30:13.454Z,3.40
2018-07-19T10:32:41.821Z,3.20
2018-07-19T10:35:09.988Z,2.90
2018-07-19T10:37:38.279Z,3.00
2018-07-19T10:40:06.596Z,2.90
2018-07-19T10:42:34.774Z,3.00
2018-07-19T10:45:02.989Z,3.17
2018-07-19T10:47:31.488Z,3.50
2018-07-19T10:49:59.678Z,2.87
2018-07-19T10:52:27.842Z,2.80
2018-07-19T10:54:56.022Z,3.13
2018-07-19T10:57:24.247Z,2.77
2018-07-19T10:59:52.374Z,3.00
2018-07-19T11:02:20.629Z,3.20
2018-07-19T11:04:48.955Z,2.60
2018-07-19T11:07:17.373Z,2.67
2018-07-19T11:09:45.614Z,3.40
2018-07-19T11:12:13.825Z,2.93
2018-07-19T11:14:42.001Z,3.40
2018-07-19T11:17:10.293Z,3.10
2018-07-19T11:19:38.505Z,2.70
2018-07-19T11:22:06.873Z,2.77
2018-07-19T11:24:35.113Z,2.83
2018-07-19T11:27:03.374Z,2.67
2018-07-19T11:29:31.581Z,2.23
2018-07-19T11:31:59.831Z,2.50
2018-07-19T11:34:28.104Z,2.60
2018-07-19T11:36:56.321Z,2.53
2018-07-19T11:39:24.878Z,2.37
2018-07-19T11:41:53.057Z,1.90
2018-07-19T11:44:21.302Z,2.17
2018-07-19T11:46:49.490Z,2.23
2018-07-19T11:49:17.662Z,2.30
2018-07-19T11:51:45.822Z,2.03
2018-07-19T11:54:14.314Z,2.13
2018-07-19T11:56:42.485Z,2.10
2018-07-19T11:59:10.634Z,2.45
2018-07-19T12:01:38.850Z,2.22
2018-07-19T12:04:06.966Z,1.75
2018-07-19T12:06:35.126Z,2.33
2018-07-19T12:09:04.409Z,2.20
2018-07-19T12:11:32.621Z,2.00
2018-07-19T12:14:00.773Z,2.30
2018-07-19T12:16:28.970Z,2.40
2018-07-19T12:18:57.145Z,2.02
2018-07-19T12:21:25.465Z,2.33
2018-07-19T12:23:53.680Z,2.52
2018-07-19T12:26:21.884Z,2.20
2018-07-19T12:28:50.027Z,2.00
2018-07-19T12:31:18.322Z,2.20
2018-07-19T12:33:46.986Z,2.10
2018-07-19T12:36:15.134Z,2.20
2018-07-19T12:38:43.308Z,2.70
2018-07-19T12:41:11.578Z,2.47
2018-07-19T12:43:39.769Z,2.00
2018-07-19T12:46:08.184Z,2.22
2018-07-19T12:48:36.429Z,2.50
2018-07-19T12:51:04.598Z,1.95
2018-07-19T12:53:32.781Z,2.30
2018-07-19T12:56:01.042Z,2.25
2018-07-19T12:58:29.340Z,2.17
2018-07-19T13:00:57.494Z,2.45
2018-07-19T13:03:27.280Z,1.90
2018-07-19T13:05:55.492Z,2.27
2018-07-19T13:08:24.552Z,2.15
2018-07-19T13:10:52.693Z,2.25
2018-07-19T13:13:20.857Z,2.20
2018-07-19T13:15:49.099Z,2.67
2018-07-19T13:18:17.273Z,2.52
2018-07-19T13:20:45.467Z,2.00
2018-07-19T13:23:13.621Z,2.08
2018-07-19T13:25:41.888Z,2.45
2018-07-19T13:28:10.201Z,2.10
2018-07-19T13:30:38.385Z,2.22
2018-07-19T13:33:06.585Z,2.45
2018-07-19T13:35:34.732Z,2.10
2018-07-19T13:38:02.905Z,2.00
2018-07-19T13:40:31.081Z,2.30
2018-07-19T13:42:59.226Z,2.30
2018-07-19T13:45:27.386Z,2.05
2018-07-19T13:47:55.544Z,2.40
2018-07-19T13:50:23.698Z,2.25
2018-07-19T13:53:03.329Z,2.47
2018-07-19T13:55:31.498Z,2.10
2018-07-19T13:57:59.658Z,2.40
2018-07-19T14:00:27.826Z,2.30
2018-07-19T14:02:55.974Z,2.40
2018-07-19T14:05:24.118Z,2.08
2018-07-19T14:07:52.286Z,2.25
2018-07-19T14:10:20.450Z,2.50
2018-07-19T14:12:48.618Z,2.20
2018-07-19T14:15:16.863Z,2.33
2018-07-19T14:17:45.018Z,2.40
2018-07-19T14:20:13.251Z,2.10
2018-07-19T14:22:41.536Z,2.30
2018-07-19T14:25:09.806Z,1.95
2018-07-19T14:27:37.985Z,2.20
2018-07-19T14:30:06.585Z,2.75
2018-07-19T14:32:34.849Z,2.30
2018-07-19T14:35:03.114Z,2.08
2018-07-19T14:37:31.303Z,2.17
2018-07-19T14:39:59.457Z,2.25
2018-07-19T14:42:27.636Z,2.40
2018-07-19T14:44:55.809Z,2.67
2018-07-19T14:47:24.179Z,2.22
2018-07-19T14:49:52.337Z,2.50
2018-07-19T14:52:20.493Z,2.40
2018-07-19T14:54:48.657Z,2.33
2018-07-19T14:57:16.899Z,2.60
2018-07-19T14:59:45.079Z,2.30
2018-07-19T15:02:13.298Z,2.10
2018-07-19T15:04:41.454Z,2.15
2018-07-19T15:07:09.957Z,5.40
2018-07-19T15:09:38.126Z,2.45
2018-07-19T15:12:06.530Z,2.67
2018-07-19T15:14:34.722Z,2.90
2018-07-19T15:17:02.891Z,2.80
2018-07-19T15:19:31.070Z,2.00
2018-07-19T15:21:59.373Z,2.27
2018-07-19T15:24:27.535Z,2.92
2018-07-19T15:26:55.803Z,2.35
2018-07-19T15:29:24.026Z,2.70
2018-07-19T15:31:52.237Z,3.50
2018-07-19T15:34:20.456Z,4.25
2018-07-19T15:36:48.705Z,2.40
2018-07-19T15:39:16.981Z,2.27
2018-07-19T15:41:45.241Z,2.58
2018-07-19T15:44:13.445Z,2.70
2018-07-19T15:46:41.609Z,2.60
2018-07-19T15:49:09.921Z,2.35
2018-07-19T15:51:38.451Z,2.35
2018-07-19T15:54:06.611Z,2.73
2018-07-19T15:56:34.796Z,3.20
2018-07-19T15:59:02.992Z,2.40
2018-07-19T16:01:31.209Z,2.40
2018-07-19T16:03:59.337Z,2.90
2018-07-19T16:06:27.756Z,2.17
2018-07-19T16:08:56.029Z,2.43
2018-07-19T16:11:24.258Z,2.00
2018-07-19T16:13:52.574Z,2.70
2018-07-19T16:16:20.960Z,6.73
2018-07-19T16:18:49.174Z,3.17
2018-07-19T16:21:17.374Z,7.67
2018-07-19T16:23:45.642Z,3.17
2018-07-19T16:26:13.816Z,3.40
2018-07-19T16:28:41.984Z,2.60
2018-07-19T16:31:10.182Z,2.80
2018-07-19T16:33:38.434Z,2.60
2018-07-19T16:36:06.628Z,2.80
2018-07-19T16:38:34.810Z,2.70
2018-07-19T16:41:03.074Z,3.00
2018-07-19T16:43:31.334Z,2.70
2018-07-19T16:45:59.499Z,3.00
2018-07-19T16:48:27.665Z,2.90
2018-07-19T16:50:55.849Z,3.07
2018-07-19T16:53:24.493Z,2.87
2018-07-19T16:55:52.883Z,3.23
2018-07-19T16:58:21.133Z,3.37
2018-07-19T17:00:49.261Z,3.23
2018-07-19T17:03:17.543Z,2.73
2018-07-19T17:05:45.825Z,3.37
2018-07-19T17:08:13.996Z,2.97
2018-07-19T17:10:42.269Z,3.47
2018-07-19T17:13:10.583Z,2.87
2018-07-19T17:15:38.909Z,2.70
2018-07-19T17:18:07.240Z,5.70
2018-07-19T17:20:35.522Z,7.93
2018-07-19T17:23:03.736Z,4.10
2018-07-19T17:25:32.018Z,3.20
2018-07-19T17:28:00.218Z,3.30
2018-07-19T17:30:28.782Z,3.00
2018-07-19T17:32:57.041Z,2.83
2018-07-19T17:35:25.381Z,3.20
2018-07-19T17:37:53.557Z,2.80
2018-07-19T17:40:21.773Z,3.87
2018-07-19T17:42:50.077Z,3.50
2018-07-19T17:45:18.253Z,3.00
2018-07-19T17:47:46.433Z,2.87
2018-07-19T17:50:14.692Z,2.53
2018-07-19T17:52:42.868Z,2.63
2018-07-19T17:55:11.403Z,2.90
2018-07-19T17:57:39.647Z,30.83
2018-07-19T18:00:07.831Z,4.30
2018-07-19T18:02:36.062Z,3.33
2018-07-19T18:05:04.276Z,3.13
2018-07-19T18:07:32.456Z,3.50
2018-07-19T18:10:00.640Z,3.30
2018-07-19T18:12:28.864Z,3.00
2018-07-19T18:14:57.280Z,3.00
2018-07-19T18:17:25.707Z,2.90
2018-07-19T18:19:53.892Z,3.43
2018-07-19T18:22:22.684Z,3.60
2018-07-19T18:24:50.874Z,3.07
2018-07-19T18:27:19.074Z,3.10
2018-07-19T18:29:47.263Z,3.40
2018-07-19T18:32:15.402Z,2.73
2018-07-19T18:34:43.821Z,3.50
2018-07-19T18:37:15.409Z,3.10
2018-07-19T18:39:44.385Z,3.90
2018-07-19T18:42:12.553Z,3.80
2018-07-19T18:44:41.688Z,4.27
2018-07-19T18:47:10.400Z,4.10
2018-07-19T18:49:38.696Z,5.37
2018-07-19T18:52:06.909Z,4.80
2018-07-19T18:54:35.201Z,4.80
2018-07-19T18:57:03.571Z,3.77
2018-07-19T18:59:31.736Z,4.53
2018-07-19T19:02:00.439Z,21.73
2018-07-19T19:04:29.081Z,6.43
2018-07-19T19:06:57.273Z,6.30
2018-07-19T19:09:25.919Z,5.17
2018-07-19T19:11:54.130Z,5.03
2018-07-19T19:14:22.894Z,5.17
2018-07-19T19:16:51.114Z,3.97
2018-07-19T19:19:19.342Z,3.63
2018-07-19T19:21:47.581Z,4.10
2018-07-19T19:24:15.788Z,4.13
2018-07-19T19:26:44.398Z,4.47
2018-07-19T19:29:12.982Z,4.60
2018-07-19T19:31:41.171Z,4.30
2018-07-19T19:34:10.159Z,4.03
2018-07-19T19:36:38.334Z,4.67
2018-07-19T19:39:10.457Z,4.60
2018-07-19T19:41:38.765Z,4.50
2018-07-19T19:44:07.041Z,4.83
2018-07-19T19:46:35.250Z,4.50
2018-07-19T19:49:03.419Z,4.60
2018-07-19T19:51:31.591Z,4.97
2018-07-19T19:53:59.812Z,5.10
2018-07-19T19:56:27.929Z,4.43
2018-07-19T19:58:56.222Z,4.77
2018-07-19T20:01:24.631Z,5.00
2018-07-19T20:03:52.825Z,4.40
2018-07-19T20:06:21.175Z,5.70
2018-07-19T20:08:49.392Z,4.80
2018-07-19T20:11:17.560Z,4.77
2018-07-19T20:13:45.755Z,5.27
2018-07-19T20:16:14.023Z,5.00
2018-07-19T20:18:42.207Z,4.90
2018-07-19T20:21:10.422Z,4.80
2018-07-19T20:23:38.614Z,5.27
2018-07-19T20:26:07.004Z,5.47
2018-07-19T20:28:35.229Z,5.47
2018-07-19T20:31:03.440Z,4.80
2018-07-19T20:33:31.692Z,5.07
2018-07-19T20:35:59.926Z,5.47
2018-07-19T20:38:28.127Z,5.73
2018-07-19T20:40:56.382Z,5.60
2018-07-19T20:43:24.682Z,4.80
2018-07-19T20:45:52.897Z,5.37
2018-07-19T20:48:21.081Z,4.40
2018-07-19T20:50:49.594Z,4.43
2018-07-19T20:53:17.804Z,8.40
2018-07-19T20:55:45.973Z,10.70
2018-07-19T20:58:14.162Z,6.43
2018-07-19T21:00:42.362Z,4.93
2018-07-19T21:03:11.249Z,4.83
2018-07-19T21:05:39.483Z,7.37
2018-07-19T21:08:07.685Z,5.30
2018-07-19T21:10:35.881Z,4.90
2018-07-19T21:13:04.058Z,4.73
2018-07-19T21:15:32.252Z,6.80
2018-07-19T21:18:00.506Z,4.83
2018-07-19T21:20:28.769Z,4.33
2018-07-19T21:22:56.968Z,6.00
2018-07-19T21:25:25.868Z,4.60
2018-07-19T21:27:54.348Z,5.10
2018-07-19T21:30:22.528Z,5.37
2018-07-19T21:32:50.827Z,4.70
2018-07-19T21:35:19.015Z,5.23
2018-07-19T21:37:47.186Z,5.20
2018-07-19T21:40:15.418Z,5.13
2018-07-19T21:42:43.726Z,5.30
2018-07-19T21:45:11.960Z,5.97
2018-07-19T21:47:40.125Z,5.20
2018-07-19T21:50:08.292Z,5.60
2018-07-19T21:52:36.482Z,5.50
2018-07-19T21:55:04.690Z,5.30
2018-07-19T21:57:32.846Z,5.00
2018-07-19T22:00:01.110Z,5.20
2018-07-19T22:02:29.290Z,4.87
2018-07-19T22:04:57.442Z,5.00
2018-07-19T22:07:25.626Z,6.33
2018-07-19T22:09:53.786Z,5.37
2018-07-19T22:12:21.977Z,4.30
2018-07-19T22:14:50.160Z,4.97
2018-07-19T22:17:18.449Z,5.90
2018-07-19T22:19:46.691Z,5.20
2018-07-19T22:22:14.874Z,6.30
2018-07-19T22:24:43.211Z,5.27
2018-07-19T22:27:11.380Z,5.43
2018-07-19T22:29:39.596Z,5.43
2018-07-19T22:32:07.770Z,7.00
2018-07-19T22:34:36.163Z,5.83
2018-07-19T22:37:04.442Z,6.37
2018-07-19T22:39:32.602Z,6.00
2018-07-19T22:42:00.758Z,5.57
2018-07-19T22:44:28.954Z,5.90
2018-07-19T22:46:57.148Z,6.43
2018-07-19T22:49:25.299Z,5.63
2018-07-19T22:51:53.550Z,6.00
2018-07-19T22:54:21.732Z,6.40
2018-07-19T22:56:49.894Z,6.77
2018-07-19T22:59:18.066Z,6.20
2018-07-19T23:01:46.234Z,6.90
2018-07-19T23:04:14.558Z,7.00
2018-07-19T23:06:42.725Z,6.17
2018-07-19T23:09:11.301Z,7.30
2018-07-19T23:11:39.789Z,6.90
2018-07-19T23:14:08.293Z,6.53
2018-07-19T23:16:36.527Z,6.33
2018-07-19T23:19:04.686Z,6.60
2018-07-19T23:21:32.885Z,7.00
2018-07-19T23:24:01.061Z,6.60
2018-07-19T23:26:29.221Z,7.57
2018-07-19T23:28:57.425Z,6.90
2018-07-19T23:31:25.606Z,6.60
2018-07-19T23:33:53.875Z,6.23
2018-07-19T23:36:25.285Z,6.90
2018-07-19T23:38:56.625Z,6.57
2018-07-19T23:41:30.168Z,6.67
2018-07-19T23:44:02.099Z,6.90
2018-07-19T23:46:34.363Z,6.80
2018-07-19T23:49:07.541Z,6.40
2018-07-19T23:51:37.242Z,6.70
2018-07-19T23:54:05.395Z,7.27
2018-07-19T23:56:34.150Z,6.70
2018-07-19T23:59:02.558Z,7.53
